sensor_id;sensor_type;location;lat;lon;timestamp;P1;durP1;ratioP1;P2;durP2;ratioP2
70543;SDS011;58097;48.364;-1.224;2023-02-15T00:01:30;25.30;;;14.95;;
70543;SDS011;58097;48.364;-1.224;2023-02-15T00:03:56;31.00;;;14.63;;
70543;SDS011;58097;48.364;-1.224;2023-02-15T00:06:21;28.65;;;14.23;;
70543;SDS011;58097;48.364;-1.224;2023-02-15T00:08:47;27.17;;;13.75;;
70543;SDS011;58097;48.364;-1.224;2023-02-15T00:11:13;26.60;;;14.35;;
70543;SDS011;58097;48.364;-1.224;2023-02-15T00:13:41;23.48;;;14.52;;
70543;SDS011;58097;48.364;-1.224;2023-02-15T00:16:08;23.23;;;13.88;;
70543;SDS011;58097;48.364;-1.224;2023-02-15T00:18:36;24.48;;;14.50;;
70543;SDS011;58097;48.364;-1.224;2023-02-15T00:21:03;30.75;;;14.98;;
70543;SDS011;58097;48.364;-1.224;2023-02-15T00:23:33;29.33;;;14.65;;
70543;SDS011;58097;48.364;-1.224;2023-02-15T00:26:09;28.20;;;15.20;;
70543;SDS011;58097;48.364;-1.224;2023-02-15T00:28:36;23.73;;;14.27;;
70543;SDS011;58097;48.364;-1.224;2023-02-15T00:31:02;29.48;;;14.98;;
70543;SDS011;58097;48.364;-1.224;2023-02-15T00:33:32;35.05;;;14.43;;
70543;SDS011;58097;48.364;-1.224;2023-02-15T00:35:58;29.33;;;15.02;;
70543;SDS011;58097;48.364;-1.224;2023-02-15T00:38:25;23.95;;;13.43;;
70543;SDS011;58097;48.364;-1.224;2023-02-15T00:40:57;23.83;;;13.18;;
70543;SDS011;58097;48.364;-1.224;2023-02-15T00:43:24;23.95;;;14.57;;
70543;SDS011;58097;48.364;-1.224;2023-02-15T00:45:51;30.23;;;15.88;;
70543;SDS011;58097;48.364;-1.224;2023-02-15T00:48:17;29.40;;;15.10;;
70543;SDS011;58097;48.364;-1.224;2023-02-15T00:50:46;32.58;;;14.98;;
70543;SDS011;58097;48.364;-1.224;2023-02-15T00:53:16;28.55;;;14.98;;
70543;SDS011;58097;48.364;-1.224;2023-02-15T00:55:41;31.52;;;15.50;;
70543;SDS011;58097;48.364;-1.224;2023-02-15T00:58:07;28.58;;;15.32;;
70543;SDS011;58097;48.364;-1.224;2023-02-15T01:00:33;32.33;;;15.45;;
70543;SDS011;58097;48.364;-1.224;2023-02-15T01:02:59;29.98;;;14.90;;
70543;SDS011;58097;48.364;-1.224;2023-02-15T01:05:24;24.65;;;13.68;;
70543;SDS011;58097;48.364;-1.224;2023-02-15T01:07:50;25.23;;;14.82;;
70543;SDS011;58097;48.364;-1.224;2023-02-15T01:10:15;24.05;;;13.73;;
70543;SDS011;58097;48.364;-1.224;2023-02-15T01:12:41;25.35;;;14.02;;
70543;SDS011;58097;48.364;-1.224;2023-02-15T01:15:06;25.13;;;14.32;;
70543;SDS011;58097;48.364;-1.224;2023-02-15T01:17:32;29.75;;;14.25;;
70543;SDS011;58097;48.364;-1.224;2023-02-15T01:19:57;26.02;;;13.75;;
70543;SDS011;58097;48.364;-1.224;2023-02-15T01:22:24;25.52;;;13.38;;
70543;SDS011;58097;48.364;-1.224;2023-02-15T01:24:50;26.27;;;13.80;;
70543;SDS011;58097;48.364;-1.224;2023-02-15T01:27:15;21.33;;;14.07;;
70543;SDS011;58097;48.364;-1.224;2023-02-15T01:29:41;28.30;;;15.18;;
70543;SDS011;58097;48.364;-1.224;2023-02-15T01:32:06;31.50;;;13.38;;
70543;SDS011;58097;48.364;-1.224;2023-02-15T01:34:32;23.10;;;14.15;;
70543;SDS011;58097;48.364;-1.224;2023-02-15T01:36:57;26.05;;;14.13;;
70543;SDS011;58097;48.364;-1.224;2023-02-15T01:39:22;24.92;;;13.05;;
70543;SDS011;58097;48.364;-1.224;2023-02-15T01:41:48;24.20;;;13.70;;
70543;SDS011;58097;48.364;-1.224;2023-02-15T01:50:21;23.50;;;12.43;;
70543;SDS011;58097;48.364;-1.224;2023-02-15T01:53:03;29.13;;;14.65;;
70543;SDS011;58097;48.364;-1.224;2023-02-15T01:55:46;28.83;;;14.75;;
70543;SDS011;58097;48.364;-1.224;2023-02-15T01:58:15;28.95;;;15.10;;
70543;SDS011;58097;48.364;-1.224;2023-02-15T02:00:41;26.05;;;14.07;;
70543;SDS011;58097;48.364;-1.224;2023-02-15T02:03:08;23.42;;;12.85;;
70543;SDS011;58097;48.364;-1.224;2023-02-15T02:05:33;29.80;;;14.73;;
70543;SDS011;58097;48.364;-1.224;2023-02-15T02:07:59;24.70;;;14.32;;
70543;SDS011;58097;48.364;-1.224;2023-02-15T02:10:27;29.15;;;14.52;;
70543;SDS011;58097;48.364;-1.224;2023-02-15T02:13:03;23.88;;;12.40;;
70543;SDS011;58097;48.364;-1.224;2023-02-15T02:15:37;26.80;;;15.48;;
70543;SDS011;58097;48.364;-1.224;2023-02-15T02:23:23;26.20;;;13.32;;
70543;SDS011;58097;48.364;-1.224;2023-02-15T02:33:52;24.77;;;13.63;;
70543;SDS011;58097;48.364;-1.224;2023-02-15T02:44:01;25.65;;;13.48;;
70543;SDS011;58097;48.364;-1.224;2023-02-15T02:46:59;30.40;;;13.45;;
70543;SDS011;58097;48.364;-1.224;2023-02-15T02:49:38;21.63;;;13.00;;
70543;SDS011;58097;48.364;-1.224;2023-02-15T02:52:06;25.40;;;13.60;;
70543;SDS011;58097;48.364;-1.224;2023-02-15T02:54:53;24.33;;;13.35;;
70543;SDS011;58097;48.364;-1.224;2023-02-15T02:57:20;21.23;;;12.40;;
70543;SDS011;58097;48.364;-1.224;2023-02-15T02:59:49;25.95;;;13.38;;
70543;SDS011;58097;48.364;-1.224;2023-02-15T03:02:17;27.42;;;13.85;;
70543;SDS011;58097;48.364;-1.224;2023-02-15T03:04:48;24.23;;;13.27;;
70543;SDS011;58097;48.364;-1.224;2023-02-15T03:07:23;27.38;;;14.23;;
70543;SDS011;58097;48.364;-1.224;2023-02-15T03:09:53;23.23;;;13.27;;
70543;SDS011;58097;48.364;-1.224;2023-02-15T03:12:22;21.75;;;12.63;;
70543;SDS011;58097;48.364;-1.224;2023-02-15T03:15:11;21.88;;;12.75;;
70543;SDS011;58097;48.364;-1.224;2023-02-15T03:17:45;20.35;;;11.40;;
70543;SDS011;58097;48.364;-1.224;2023-02-15T03:20:32;24.20;;;12.02;;
70543;SDS011;58097;48.364;-1.224;2023-02-15T03:23:09;28.10;;;13.15;;
70543;SDS011;58097;48.364;-1.224;2023-02-15T03:25:40;22.70;;;12.60;;
70543;SDS011;58097;48.364;-1.224;2023-02-15T03:28:15;19.58;;;12.20;;
70543;SDS011;58097;48.364;-1.224;2023-02-15T03:30:46;21.23;;;12.25;;
70543;SDS011;58097;48.364;-1.224;2023-02-15T03:33:16;24.67;;;12.50;;
70543;SDS011;58097;48.364;-1.224;2023-02-15T03:35:52;25.25;;;11.80;;
70543;SDS011;58097;48.364;-1.224;2023-02-15T03:38:25;19.35;;;11.35;;
70543;SDS011;58097;48.364;-1.224;2023-02-15T03:40:58;22.13;;;12.45;;
70543;SDS011;58097;48.364;-1.224;2023-02-15T03:46:22;22.20;;;12.80;;
70543;SDS011;58097;48.364;-1.224;2023-02-15T03:49:01;23.65;;;12.70;;
70543;SDS011;58097;48.364;-1.224;2023-02-15T03:51:31;18.90;;;11.80;;
70543;SDS011;58097;48.364;-1.224;2023-02-15T03:56:29;25.13;;;12.75;;
70543;SDS011;58097;48.364;-1.224;2023-02-15T03:58:55;21.52;;;12.75;;
70543;SDS011;58097;48.364;-1.224;2023-02-15T04:01:40;23.27;;;11.52;;
70543;SDS011;58097;48.364;-1.224;2023-02-15T04:04:23;20.73;;;11.52;;
70543;SDS011;58097;48.364;-1.224;2023-02-15T04:06:50;20.98;;;11.10;;
70543;SDS011;58097;48.364;-1.224;2023-02-15T04:09:16;21.05;;;11.93;;
70543;SDS011;58097;48.364;-1.224;2023-02-15T04:12:00;22.67;;;11.13;;
70543;SDS011;58097;48.364;-1.224;2023-02-15T04:14:25;22.40;;;11.88;;
70543;SDS011;58097;48.364;-1.224;2023-02-15T04:17:09;20.48;;;11.45;;
70543;SDS011;58097;48.364;-1.224;2023-02-15T04:19:34;21.33;;;11.88;;
70543;SDS011;58097;48.364;-1.224;2023-02-15T04:22:19;21.92;;;12.38;;
70543;SDS011;58097;48.364;-1.224;2023-02-15T04:25:03;18.85;;;12.57;;
70543;SDS011;58097;48.364;-1.224;2023-02-15T04:27:38;22.10;;;11.75;;
70543;SDS011;58097;48.364;-1.224;2023-02-15T04:30:06;20.33;;;11.25;;
70543;SDS011;58097;48.364;-1.224;2023-02-15T04:32:32;24.45;;;12.00;;
70543;SDS011;58097;48.364;-1.224;2023-02-15T04:34:59;23.73;;;13.02;;
70543;SDS011;58097;48.364;-1.224;2023-02-15T04:37:24;24.20;;;12.02;;
70543;SDS011;58097;48.364;-1.224;2023-02-15T04:39:49;19.80;;;12.52;;
70543;SDS011;58097;48.364;-1.224;2023-02-15T04:42:15;19.60;;;11.15;;
70543;SDS011;58097;48.364;-1.224;2023-02-15T04:44:40;23.42;;;12.63;;
70543;SDS011;58097;48.364;-1.224;2023-02-15T04:47:06;22.00;;;11.80;;
70543;SDS011;58097;48.364;-1.224;2023-02-15T04:49:31;19.20;;;11.25;;
70543;SDS011;58097;48.364;-1.224;2023-02-15T04:51:56;19.77;;;12.13;;
70543;SDS011;58097;48.364;-1.224;2023-02-15T04:54:22;19.15;;;11.10;;
70543;SDS011;58097;48.364;-1.224;2023-02-15T04:56:47;24.33;;;12.18;;
70543;SDS011;58097;48.364;-1.224;2023-02-15T04:59:12;26.23;;;10.77;;
70543;SDS011;58097;48.364;-1.224;2023-02-15T05:01:38;21.65;;;11.70;;
70543;SDS011;58097;48.364;-1.224;2023-02-15T05:04:03;19.23;;;10.88;;
70543;SDS011;58097;48.364;-1.224;2023-02-15T05:06:29;19.13;;;10.98;;
70543;SDS011;58097;48.364;-1.224;2023-02-15T05:08:55;22.55;;;12.45;;
70543;SDS011;58097;48.364;-1.224;2023-02-15T05:11:20;21.40;;;11.70;;
70543;SDS011;58097;48.364;-1.224;2023-02-15T05:13:46;21.17;;;11.40;;
70543;SDS011;58097;48.364;-1.224;2023-02-15T05:16:12;18.80;;;11.98;;
70543;SDS011;58097;48.364;-1.224;2023-02-15T05:18:37;23.98;;;11.80;;
70543;SDS011;58097;48.364;-1.224;2023-02-15T05:21:02;22.65;;;12.05;;
70543;SDS011;58097;48.364;-1.224;2023-02-15T05:23:28;22.80;;;11.32;;
70543;SDS011;58097;48.364;-1.224;2023-02-15T05:25:53;21.73;;;11.63;;
70543;SDS011;58097;48.364;-1.224;2023-02-15T05:28:37;18.95;;;10.80;;
70543;SDS011;58097;48.364;-1.224;2023-02-15T05:31:06;23.33;;;11.95;;
70543;SDS011;58097;48.364;-1.224;2023-02-15T05:33:32;18.27;;;11.40;;
70543;SDS011;58097;48.364;-1.224;2023-02-15T05:35:58;19.88;;;11.02;;
70543;SDS011;58097;48.364;-1.224;2023-02-15T05:38:23;20.45;;;11.30;;
70543;SDS011;58097;48.364;-1.224;2023-02-15T05:40:50;17.52;;;11.07;;
70543;SDS011;58097;48.364;-1.224;2023-02-15T05:43:15;19.38;;;10.35;;
70543;SDS011;58097;48.364;-1.224;2023-02-15T05:45:44;18.90;;;10.50;;
70543;SDS011;58097;48.364;-1.224;2023-02-15T05:48:10;19.92;;;12.50;;
70543;SDS011;58097;48.364;-1.224;2023-02-15T05:50:35;16.33;;;11.30;;
70543;SDS011;58097;48.364;-1.224;2023-02-15T05:53:01;20.42;;;10.55;;
70543;SDS011;58097;48.364;-1.224;2023-02-15T05:55:26;22.90;;;12.82;;
70543;SDS011;58097;48.364;-1.224;2023-02-15T05:57:51;19.45;;;11.23;;
70543;SDS011;58097;48.364;-1.224;2023-02-15T06:00:17;24.67;;;11.55;;
70543;SDS011;58097;48.364;-1.224;2023-02-15T06:02:42;19.73;;;11.23;;
70543;SDS011;58097;48.364;-1.224;2023-02-15T06:05:08;19.92;;;11.82;;
70543;SDS011;58097;48.364;-1.224;2023-02-15T06:07:34;20.73;;;11.27;;
70543;SDS011;58097;48.364;-1.224;2023-02-15T06:09:59;23.27;;;12.40;;
70543;SDS011;58097;48.364;-1.224;2023-02-15T06:12:24;24.83;;;12.75;;
70543;SDS011;58097;48.364;-1.224;2023-02-15T06:14:50;18.60;;;11.23;;
70543;SDS011;58097;48.364;-1.224;2023-02-15T06:17:15;26.25;;;12.23;;
70543;SDS011;58097;48.364;-1.224;2023-02-15T06:19:42;19.48;;;10.43;;
70543;SDS011;58097;48.364;-1.224;2023-02-15T06:22:08;17.85;;;9.50;;
70543;SDS011;58097;48.364;-1.224;2023-02-15T06:24:33;28.73;;;11.82;;
70543;SDS011;58097;48.364;-1.224;2023-02-15T06:26:59;21.30;;;12.48;;
70543;SDS011;58097;48.364;-1.224;2023-02-15T06:29:24;21.73;;;10.63;;
70543;SDS011;58097;48.364;-1.224;2023-02-15T06:31:49;17.95;;;9.43;;
70543;SDS011;58097;48.364;-1.224;2023-02-15T06:34:15;19.77;;;9.90;;
70543;SDS011;58097;48.364;-1.224;2023-02-15T06:36:40;19.38;;;10.98;;
70543;SDS011;58097;48.364;-1.224;2023-02-15T06:39:06;23.55;;;11.25;;
70543;SDS011;58097;48.364;-1.224;2023-02-15T06:41:31;20.15;;;11.23;;
70543;SDS011;58097;48.364;-1.224;2023-02-15T06:43:56;21.35;;;11.52;;
70543;SDS011;58097;48.364;-1.224;2023-02-15T06:46:22;21.23;;;11.70;;
70543;SDS011;58097;48.364;-1.224;2023-02-15T06:48:48;26.67;;;12.70;;
70543;SDS011;58097;48.364;-1.224;2023-02-15T06:51:13;20.05;;;12.00;;
70543;SDS011;58097;48.364;-1.224;2023-02-15T06:53:38;15.57;;;10.43;;
70543;SDS011;58097;48.364;-1.224;2023-02-15T06:56:07;19.77;;;10.68;;
70543;SDS011;58097;48.364;-1.224;2023-02-15T06:58:34;19.67;;;11.18;;
70543;SDS011;58097;48.364;-1.224;2023-02-15T07:01:03;18.00;;;10.20;;
70543;SDS011;58097;48.364;-1.224;2023-02-15T07:03:30;20.23;;;10.85;;
70543;SDS011;58097;48.364;-1.224;2023-02-15T07:05:56;16.65;;;10.80;;
70543;SDS011;58097;48.364;-1.224;2023-02-15T07:08:23;22.83;;;11.60;;
70543;SDS011;58097;48.364;-1.224;2023-02-15T07:10:49;26.13;;;11.68;;
70543;SDS011;58097;48.364;-1.224;2023-02-15T07:13:16;34.65;;;11.93;;
70543;SDS011;58097;48.364;-1.224;2023-02-15T07:15:41;23.10;;;11.98;;
70543;SDS011;58097;48.364;-1.224;2023-02-15T07:18:07;19.50;;;11.02;;
70543;SDS011;58097;48.364;-1.224;2023-02-15T07:20:32;21.17;;;10.80;;
70543;SDS011;58097;48.364;-1.224;2023-02-15T07:23:00;18.85;;;11.15;;
70543;SDS011;58097;48.364;-1.224;2023-02-15T07:25:26;18.85;;;10.95;;
70543;SDS011;58097;48.364;-1.224;2023-02-15T07:27:56;21.15;;;11.10;;
70543;SDS011;58097;48.364;-1.224;2023-02-15T07:30:22;20.08;;;10.90;;
70543;SDS011;58097;48.364;-1.224;2023-02-15T07:32:47;19.67;;;11.20;;
70543;SDS011;58097;48.364;-1.224;2023-02-15T07:35:32;22.15;;;11.88;;
70543;SDS011;58097;48.364;-1.224;2023-02-15T07:37:57;25.13;;;11.70;;
70543;SDS011;58097;48.364;-1.224;2023-02-15T07:40:23;18.50;;;11.43;;
70543;SDS011;58097;48.364;-1.224;2023-02-15T07:42:49;25.35;;;13.18;;
70543;SDS011;58097;48.364;-1.224;2023-02-15T07:45:16;20.25;;;11.25;;
70543;SDS011;58097;48.364;-1.224;2023-02-15T07:47:41;23.15;;;11.75;;
70543;SDS011;58097;48.364;-1.224;2023-02-15T07:50:07;21.02;;;11.13;;
70543;SDS011;58097;48.364;-1.224;2023-02-15T07:52:32;30.05;;;13.95;;
70543;SDS011;58097;48.364;-1.224;2023-02-15T07:54:58;23.05;;;13.02;;
70543;SDS011;58097;48.364;-1.224;2023-02-15T07:57:23;22.63;;;12.50;;
70543;SDS011;58097;48.364;-1.224;2023-02-15T07:59:48;26.08;;;13.20;;
70543;SDS011;58097;48.364;-1.224;2023-02-15T08:02:14;22.40;;;12.60;;
70543;SDS011;58097;48.364;-1.224;2023-02-15T08:04:39;26.75;;;13.27;;
70543;SDS011;58097;48.364;-1.224;2023-02-15T08:07:04;32.42;;;16.10;;
70543;SDS011;58097;48.364;-1.224;2023-02-15T08:09:30;31.17;;;13.95;;
70543;SDS011;58097;48.364;-1.224;2023-02-15T08:11:55;34.42;;;16.45;;
70543;SDS011;58097;48.364;-1.224;2023-02-15T08:14:21;28.55;;;15.07;;
70543;SDS011;58097;48.364;-1.224;2023-02-15T08:16:53;31.58;;;15.45;;
70543;SDS011;58097;48.364;-1.224;2023-02-15T08:21:50;29.20;;;16.42;;
70543;SDS011;58097;48.364;-1.224;2023-02-15T08:24:21;31.38;;;15.70;;
70543;SDS011;58097;48.364;-1.224;2023-02-15T08:26:48;28.42;;;14.27;;
70543;SDS011;58097;48.364;-1.224;2023-02-15T08:29:15;29.95;;;14.93;;
70543;SDS011;58097;48.364;-1.224;2023-02-15T08:31:42;35.15;;;16.75;;
70543;SDS011;58097;48.364;-1.224;2023-02-15T08:34:09;28.95;;;16.63;;
70543;SDS011;58097;48.364;-1.224;2023-02-15T08:36:36;28.00;;;15.45;;
70543;SDS011;58097;48.364;-1.224;2023-02-15T08:39:02;25.02;;;14.75;;
70543;SDS011;58097;48.364;-1.224;2023-02-15T08:41:31;28.55;;;16.08;;
70543;SDS011;58097;48.364;-1.224;2023-02-15T08:43:59;34.17;;;16.02;;
70543;SDS011;58097;48.364;-1.224;2023-02-15T08:46:28;25.48;;;16.05;;
70543;SDS011;58097;48.364;-1.224;2023-02-15T08:48:54;25.75;;;14.95;;
70543;SDS011;58097;48.364;-1.224;2023-02-15T08:51:21;31.77;;;16.17;;
70543;SDS011;58097;48.364;-1.224;2023-02-15T08:53:48;37.63;;;15.93;;
70543;SDS011;58097;48.364;-1.224;2023-02-15T08:56:16;32.58;;;15.32;;
70543;SDS011;58097;48.364;-1.224;2023-02-15T08:58:43;26.30;;;14.63;;
70543;SDS011;58097;48.364;-1.224;2023-02-15T09:01:16;29.92;;;17.25;;
70543;SDS011;58097;48.364;-1.224;2023-02-15T09:03:45;27.10;;;15.90;;
70543;SDS011;58097;48.364;-1.224;2023-02-15T09:06:11;32.67;;;16.50;;
70543;SDS011;58097;48.364;-1.224;2023-02-15T09:08:37;29.45;;;15.68;;
70543;SDS011;58097;48.364;-1.224;2023-02-15T09:11:21;30.05;;;16.40;;
70543;SDS011;58097;48.364;-1.224;2023-02-15T09:13:52;28.15;;;16.05;;
70543;SDS011;58097;48.364;-1.224;2023-02-15T09:16:19;32.50;;;16.17;;
70543;SDS011;58097;48.364;-1.224;2023-02-15T09:18:45;30.75;;;16.27;;
70543;SDS011;58097;48.364;-1.224;2023-02-15T09:21:12;26.10;;;15.32;;
70543;SDS011;58097;48.364;-1.224;2023-02-15T09:23:40;27.98;;;16.08;;
70543;SDS011;58097;48.364;-1.224;2023-02-15T09:26:07;25.85;;;14.98;;
70543;SDS011;58097;48.364;-1.224;2023-02-15T09:28:34;30.88;;;16.23;;
70543;SDS011;58097;48.364;-1.224;2023-02-15T09:33:33;28.30;;;16.23;;
70543;SDS011;58097;48.364;-1.224;2023-02-15T09:35:59;31.73;;;15.20;;
70543;SDS011;58097;48.364;-1.224;2023-02-15T09:38:25;27.25;;;16.95;;
70543;SDS011;58097;48.364;-1.224;2023-02-15T09:40:55;25.40;;;16.02;;
70543;SDS011;58097;48.364;-1.224;2023-02-15T09:43:55;27.13;;;16.15;;
70543;SDS011;58097;48.364;-1.224;2023-02-15T09:46:48;28.85;;;16.13;;
70543;SDS011;58097;48.364;-1.224;2023-02-15T09:55:03;32.42;;;15.80;;
70543;SDS011;58097;48.364;-1.224;2023-02-15T09:57:45;24.92;;;15.13;;
70543;SDS011;58097;48.364;-1.224;2023-02-15T10:11:23;30.08;;;17.45;;
70543;SDS011;58097;48.364;-1.224;2023-02-15T10:17:15;27.77;;;16.92;;
70543;SDS011;58097;48.364;-1.224;2023-02-15T10:28:30;29.33;;;18.00;;
70543;SDS011;58097;48.364;-1.224;2023-02-15T10:37:12;31.83;;;19.73;;
70543;SDS011;58097;48.364;-1.224;2023-02-15T10:50:14;37.78;;;18.75;;
70543;SDS011;58097;48.364;-1.224;2023-02-15T10:55:42;29.70;;;16.25;;
70543;SDS011;58097;48.364;-1.224;2023-02-15T11:00:52;21.98;;;15.02;;
70543;SDS011;58097;48.364;-1.224;2023-02-15T11:06:23;21.27;;;13.70;;
70543;SDS011;58097;48.364;-1.224;2023-02-15T11:09:00;25.83;;;13.60;;
70543;SDS011;58097;48.364;-1.224;2023-02-15T11:11:30;22.35;;;13.57;;
70543;SDS011;58097;48.364;-1.224;2023-02-15T11:14:01;20.08;;;13.00;;
70543;SDS011;58097;48.364;-1.224;2023-02-15T11:16:37;23.20;;;13.02;;
70543;SDS011;58097;48.364;-1.224;2023-02-15T11:19:08;22.45;;;14.02;;
70543;SDS011;58097;48.364;-1.224;2023-02-15T11:21:40;24.40;;;13.98;;
70543;SDS011;58097;48.364;-1.224;2023-02-15T11:24:10;18.65;;;12.70;;
70543;SDS011;58097;48.364;-1.224;2023-02-15T11:26:42;28.40;;;14.77;;
70543;SDS011;58097;48.364;-1.224;2023-02-15T11:29:33;23.60;;;14.65;;
70543;SDS011;58097;48.364;-1.224;2023-02-15T11:34:49;25.27;;;14.20;;
70543;SDS011;58097;48.364;-1.224;2023-02-15T11:37:19;23.20;;;15.45;;
70543;SDS011;58097;48.364;-1.224;2023-02-15T11:39:50;24.55;;;14.68;;
70543;SDS011;58097;48.364;-1.224;2023-02-15T11:42:20;29.15;;;15.57;;
70543;SDS011;58097;48.364;-1.224;2023-02-15T11:44:56;31.33;;;15.20;;
70543;SDS011;58097;48.364;-1.224;2023-02-15T11:47:30;29.55;;;15.43;;
70543;SDS011;58097;48.364;-1.224;2023-02-15T11:49:56;20.02;;;13.95;;
70543;SDS011;58097;48.364;-1.224;2023-02-15T11:52:22;22.75;;;13.95;;
70543;SDS011;58097;48.364;-1.224;2023-02-15T11:54:49;21.52;;;14.93;;
70543;SDS011;58097;48.364;-1.224;2023-02-15T11:57:33;22.35;;;14.18;;
70543;SDS011;58097;48.364;-1.224;2023-02-15T12:00:14;25.92;;;13.95;;
70543;SDS011;58097;48.364;-1.224;2023-02-15T12:02:50;19.70;;;12.65;;
70543;SDS011;58097;48.364;-1.224;2023-02-15T12:05:19;23.60;;;14.43;;
70543;SDS011;58097;48.364;-1.224;2023-02-15T12:07:49;22.70;;;14.25;;
70543;SDS011;58097;48.364;-1.224;2023-02-15T12:10:21;23.42;;;14.38;;
70543;SDS011;58097;48.364;-1.224;2023-02-15T12:15:37;22.17;;;13.60;;
70543;SDS011;58097;48.364;-1.224;2023-02-15T12:18:15;19.42;;;13.40;;
70543;SDS011;58097;48.364;-1.224;2023-02-15T12:20:49;20.02;;;12.50;;
70543;SDS011;58097;48.364;-1.224;2023-02-15T12:23:15;22.23;;;13.90;;
70543;SDS011;58097;48.364;-1.224;2023-02-15T12:25:43;18.27;;;13.35;;
70543;SDS011;58097;48.364;-1.224;2023-02-15T12:31:49;22.92;;;13.98;;
70543;SDS011;58097;48.364;-1.224;2023-02-15T12:34:02;22.25;;;13.80;;
70543;SDS011;58097;48.364;-1.224;2023-02-15T12:36:42;23.20;;;15.13;;
70543;SDS011;58097;48.364;-1.224;2023-02-15T12:39:20;22.63;;;14.15;;
70543;SDS011;58097;48.364;-1.224;2023-02-15T12:41:46;28.75;;;15.30;;
70543;SDS011;58097;48.364;-1.224;2023-02-15T12:44:34;22.10;;;14.75;;
70543;SDS011;58097;48.364;-1.224;2023-02-15T12:49:41;26.02;;;16.38;;
70543;SDS011;58097;48.364;-1.224;2023-02-15T12:54:49;21.45;;;13.93;;
70543;SDS011;58097;48.364;-1.224;2023-02-15T12:57:30;28.42;;;14.70;;
70543;SDS011;58097;48.364;-1.224;2023-02-15T12:59:58;24.15;;;15.52;;
70543;SDS011;58097;48.364;-1.224;2023-02-15T13:02:53;18.17;;;11.75;;
70543;SDS011;58097;48.364;-1.224;2023-02-15T13:08:10;26.65;;;14.55;;
70543;SDS011;58097;48.364;-1.224;2023-02-15T13:10:40;19.65;;;12.90;;
70543;SDS011;58097;48.364;-1.224;2023-02-15T13:13:51;25.83;;;14.63;;
70543;SDS011;58097;48.364;-1.224;2023-02-15T13:16:02;21.87;;;14.37;;
70543;SDS011;58097;48.364;-1.224;2023-02-15T13:18:33;21.02;;;13.82;;
70543;SDS011;58097;48.364;-1.224;2023-02-15T13:21:20;23.42;;;13.95;;
70543;SDS011;58097;48.364;-1.224;2023-02-15T13:24:33;24.65;;;14.70;;
70543;SDS011;58097;48.364;-1.224;2023-02-15T13:26:57;26.92;;;15.88;;
70543;SDS011;58097;48.364;-1.224;2023-02-15T13:29:27;33.05;;;17.52;;
70543;SDS011;58097;48.364;-1.224;2023-02-15T13:31:55;31.02;;;17.92;;
70543;SDS011;58097;48.364;-1.224;2023-02-15T13:34:30;25.58;;;15.48;;
70543;SDS011;58097;48.364;-1.224;2023-02-15T13:37:08;24.65;;;14.35;;
70543;SDS011;58097;48.364;-1.224;2023-02-15T13:42:29;30.27;;;18.90;;
70543;SDS011;58097;48.364;-1.224;2023-02-15T13:47:46;23.25;;;15.45;;
70543;SDS011;58097;48.364;-1.224;2023-02-15T13:56:32;27.13;;;14.23;;
70543;SDS011;58097;48.364;-1.224;2023-02-15T14:02:30;22.38;;;14.77;;
70543;SDS011;58097;48.364;-1.224;2023-02-15T14:10:40;23.23;;;13.18;;
70543;SDS011;58097;48.364;-1.224;2023-02-15T14:16:13;24.17;;;13.38;;
70543;SDS011;58097;48.364;-1.224;2023-02-15T14:19:03;17.90;;;13.15;;
70543;SDS011;58097;48.364;-1.224;2023-02-15T14:21:31;25.10;;;13.43;;
70543;SDS011;58097;48.364;-1.224;2023-02-15T14:27:00;20.25;;;13.63;;
70543;SDS011;58097;48.364;-1.224;2023-02-15T14:32:19;21.77;;;14.55;;
70543;SDS011;58097;48.364;-1.224;2023-02-15T14:34:57;20.25;;;13.23;;
70543;SDS011;58097;48.364;-1.224;2023-02-15T14:43:15;20.73;;;14.00;;
70543;SDS011;58097;48.364;-1.224;2023-02-15T14:50:56;25.38;;;15.77;;
70543;SDS011;58097;48.364;-1.224;2023-02-15T14:58:35;24.75;;;15.38;;
70543;SDS011;58097;48.364;-1.224;2023-02-15T15:01:08;22.80;;;16.05;;
70543;SDS011;58097;48.364;-1.224;2023-02-15T15:03:35;29.27;;;15.77;;
70543;SDS011;58097;48.364;-1.224;2023-02-15T15:06:20;25.75;;;14.35;;
70543;SDS011;58097;48.364;-1.224;2023-02-15T15:08:51;20.05;;;14.57;;
70543;SDS011;58097;48.364;-1.224;2023-02-15T15:13:58;25.90;;;14.38;;
70543;SDS011;58097;48.364;-1.224;2023-02-15T15:16:46;24.05;;;13.55;;
70543;SDS011;58097;48.364;-1.224;2023-02-15T15:19:56;25.27;;;13.60;;
70543;SDS011;58097;48.364;-1.224;2023-02-15T15:22:21;22.17;;;14.73;;
70543;SDS011;58097;48.364;-1.224;2023-02-15T15:24:52;23.45;;;13.75;;
70543;SDS011;58097;48.364;-1.224;2023-02-15T15:30:51;22.83;;;14.07;;
70543;SDS011;58097;48.364;-1.224;2023-02-15T15:41:18;23.50;;;13.85;;
70543;SDS011;58097;48.364;-1.224;2023-02-15T15:49:12;21.08;;;13.20;;
70543;SDS011;58097;48.364;-1.224;2023-02-15T15:51:41;23.98;;;14.57;;
70543;SDS011;58097;48.364;-1.224;2023-02-15T15:54:18;26.92;;;13.65;;
70543;SDS011;58097;48.364;-1.224;2023-02-15T15:56:47;25.73;;;14.05;;
70543;SDS011;58097;48.364;-1.224;2023-02-15T15:59:24;28.00;;;14.95;;
70543;SDS011;58097;48.364;-1.224;2023-02-15T16:01:52;20.33;;;13.80;;
70543;SDS011;58097;48.364;-1.224;2023-02-15T16:04:28;24.55;;;14.18;;
70543;SDS011;58097;48.364;-1.224;2023-02-15T16:10:02;19.85;;;12.93;;
70543;SDS011;58097;48.364;-1.224;2023-02-15T16:12:30;23.55;;;14.07;;
70543;SDS011;58097;48.364;-1.224;2023-02-15T16:15:00;21.90;;;13.77;;
70543;SDS011;58097;48.364;-1.224;2023-02-15T16:17:29;22.17;;;14.43;;
70543;SDS011;58097;48.364;-1.224;2023-02-15T16:20:07;23.55;;;14.70;;
70543;SDS011;58097;48.364;-1.224;2023-02-15T16:22:48;26.17;;;15.68;;
70543;SDS011;58097;48.364;-1.224;2023-02-15T16:25:21;27.58;;;15.80;;
70543;SDS011;58097;48.364;-1.224;2023-02-15T16:27:49;29.40;;;17.83;;
70543;SDS011;58097;48.364;-1.224;2023-02-15T16:32:55;28.23;;;16.15;;
70543;SDS011;58097;48.364;-1.224;2023-02-15T16:35:29;35.72;;;16.60;;
70543;SDS011;58097;48.364;-1.224;2023-02-15T16:37:56;29.70;;;16.38;;
70543;SDS011;58097;48.364;-1.224;2023-02-15T16:42:56;22.40;;;15.00;;
70543;SDS011;58097;48.364;-1.224;2023-02-15T16:45:26;24.08;;;14.88;;
70543;SDS011;58097;48.364;-1.224;2023-02-15T16:47:55;20.67;;;14.60;;
70543;SDS011;58097;48.364;-1.224;2023-02-15T16:50:23;15.98;;;11.90;;
70543;SDS011;58097;48.364;-1.224;2023-02-15T16:52:54;24.10;;;15.23;;
70543;SDS011;58097;48.364;-1.224;2023-02-15T16:55:22;24.58;;;15.77;;
70543;SDS011;58097;48.364;-1.224;2023-02-15T16:57:50;21.77;;;14.45;;
70543;SDS011;58097;48.364;-1.224;2023-02-15T17:00:30;21.77;;;13.23;;
70543;SDS011;58097;48.364;-1.224;2023-02-15T17:05:46;24.13;;;14.05;;
70543;SDS011;58097;48.364;-1.224;2023-02-15T17:08:33;21.27;;;12.88;;
70543;SDS011;58097;48.364;-1.224;2023-02-15T17:11:03;25.35;;;14.60;;
70543;SDS011;58097;48.364;-1.224;2023-02-15T17:14:09;26.98;;;15.40;;
70543;SDS011;58097;48.364;-1.224;2023-02-15T17:16:50;20.08;;;14.10;;
70543;SDS011;58097;48.364;-1.224;2023-02-15T17:19:32;23.08;;;14.00;;
70543;SDS011;58097;48.364;-1.224;2023-02-15T17:22:05;23.98;;;15.27;;
70543;SDS011;58097;48.364;-1.224;2023-02-15T17:24:35;27.42;;;15.57;;
70543;SDS011;58097;48.364;-1.224;2023-02-15T17:27:05;22.15;;;14.15;;
70543;SDS011;58097;48.364;-1.224;2023-02-15T17:29:38;24.58;;;13.20;;
70543;SDS011;58097;48.364;-1.224;2023-02-15T17:32:09;18.08;;;11.60;;